createdAt,value
2023-04-21T00:00:14.662Z,9.70
2023-04-21T00:02:42.174Z,9.70
2023-04-21T00:05:10.907Z,9.80
2023-04-21T00:07:39.441Z,9.70
2023-04-21T00:10:08.653Z,9.70
2023-04-21T00:12:36.145Z,9.70
2023-04-21T00:15:04.559Z,9.70
2023-04-21T00:17:31.796Z,9.70
2023-04-21T00:19:59.722Z,9.70
2023-04-21T00:22:27.010Z,9.80
2023-04-21T00:24:54.221Z,9.80
2023-04-21T00:27:21.617Z,9.70
2023-04-21T00:29:48.868Z,9.70
2023-04-21T00:32:16.230Z,9.70
2023-04-21T00:34:43.481Z,9.60
2023-04-21T00:37:12.563Z,9.60
2023-04-21T00:39:40.219Z,9.60
2023-04-21T00:42:07.666Z,9.70
2023-04-21T00:44:36.316Z,9.70
2023-04-21T00:47:04.743Z,9.70
2023-04-21T00:49:32.448Z,9.70
2023-04-21T00:51:59.842Z,9.70
2023-04-21T00:54:27.853Z,9.70
2023-04-21T00:56:55.547Z,9.70
2023-04-21T00:59:22.862Z,9.70
2023-04-21T01:01:52.783Z,9.70
2023-04-21T01:04:21.838Z,9.70
2023-04-21T01:06:49.535Z,9.70
2023-04-21T01:09:17.682Z,9.60
2023-04-21T01:12:05.279Z,9.60
2023-04-21T01:14:36.204Z,9.70
2023-04-21T01:17:07.844Z,9.70
2023-04-21T01:19:42.869Z,9.70
2023-04-21T01:22:11.787Z,9.70
2023-04-21T01:24:41.470Z,9.70
2023-04-21T01:27:21.227Z,9.70
2023-04-21T01:29:51.777Z,9.70
2023-04-21T01:32:22.931Z,9.70
2023-04-21T01:34:53.828Z,9.70
2023-04-21T01:37:24.086Z,9.70
2023-04-21T01:39:55.017Z,9.80
2023-04-21T01:42:24.799Z,9.80
2023-04-21T01:44:53.838Z,9.80
2023-04-21T01:47:22.017Z,9.80
2023-04-21T01:49:49.380Z,9.70
2023-04-21T01:52:16.823Z,9.70
2023-04-21T01:54:44.228Z,9.70
2023-04-21T01:57:11.909Z,9.80
2023-04-21T01:59:40.501Z,9.80
2023-04-21T02:02:08.024Z,9.80
2023-04-21T02:04:36.176Z,9.80
2023-04-21T02:07:03.555Z,9.80
2023-04-21T02:09:31.618Z,9.70
2023-04-21T02:11:59.073Z,9.80
2023-04-21T02:14:26.865Z,9.70
2023-04-21T02:16:56.079Z,9.70
2023-04-21T02:19:24.289Z,9.70
2023-04-21T02:21:51.657Z,9.60
2023-04-21T02:24:22.460Z,9.60
2023-04-21T02:26:49.769Z,9.60
2023-04-21T02:29:17.148Z,9.60
2023-04-21T02:31:57.873Z,9.60
2023-04-21T02:34:28.511Z,9.60
2023-04-21T02:36:55.899Z,9.60
2023-04-21T02:39:23.208Z,9.60
2023-04-21T02:41:50.497Z,9.50
2023-04-21T02:44:17.915Z,9.50
2023-04-21T02:46:45.769Z,9.40
2023-04-21T02:49:13.576Z,9.30
2023-04-21T02:51:40.999Z,9.30
2023-04-21T02:54:08.340Z,9.30
2023-04-21T02:56:35.816Z,9.30
2023-04-21T02:59:03.034Z,9.30
2023-04-21T03:01:30.333Z,9.20
2023-04-21T03:03:57.689Z,9.20
2023-04-21T03:06:25.275Z,9.10
2023-04-21T03:08:52.469Z,9.10
2023-04-21T03:11:19.722Z,9.10
2023-04-21T03:13:47.050Z,9.00
2023-04-21T03:16:14.439Z,9.00
2023-04-21T03:18:44.601Z,9.00
2023-04-21T03:21:13.242Z,9.00
2023-04-21T03:23:40.527Z,9.00
2023-04-21T03:26:08.628Z,9.00
2023-04-21T03:28:36.040Z,9.00
2023-04-21T03:31:03.643Z,9.00
2023-04-21T03:33:30.905Z,8.90
2023-04-21T03:35:58.987Z,8.90
2023-04-21T03:38:30.412Z,8.90
2023-04-21T03:40:57.684Z,8.80
2023-04-21T03:43:24.933Z,8.80
2023-04-21T03:45:52.364Z,8.90
2023-04-21T03:48:19.745Z,8.90
2023-04-21T03:50:47.050Z,8.80
2023-04-21T03:53:14.407Z,8.90
2023-04-21T03:55:41.853Z,8.90
2023-04-21T03:58:09.109Z,8.90
2023-04-21T04:00:36.490Z,8.90
2023-04-21T04:03:03.958Z,8.90
2023-04-21T04:05:31.546Z,8.80
2023-04-21T04:07:59.017Z,8.80
2023-04-21T04:10:26.316Z,8.80
2023-04-21T04:12:55.149Z,8.80
2023-04-21T04:15:22.521Z,8.80
2023-04-21T04:17:49.814Z,8.80
2023-04-21T04:20:17.162Z,8.80
2023-04-21T04:22:44.476Z,8.80
2023-04-21T04:25:12.875Z,8.80
2023-04-21T04:27:40.470Z,8.80
2023-04-21T04:30:08.652Z,8.80
2023-04-21T04:32:38.093Z,8.80
2023-04-21T04:35:06.548Z,8.70
2023-04-21T04:37:36.847Z,8.70
2023-04-21T04:40:06.315Z,8.70
2023-04-21T04:42:34.698Z,8.70
2023-04-21T04:45:02.651Z,8.80
2023-04-21T04:47:30.039Z,8.70
2023-04-21T04:49:57.221Z,8.70
2023-04-21T04:52:26.334Z,8.70
2023-04-21T04:54:53.639Z,8.70
2023-04-21T04:57:20.876Z,8.80
2023-04-21T04:59:48.101Z,8.70
2023-04-21T05:02:41.256Z,8.80
2023-04-21T05:05:09.054Z,8.80
2023-04-21T05:07:36.725Z,8.90
2023-04-21T05:10:04.682Z,8.90
2023-04-21T05:12:34.683Z,8.90
2023-04-21T05:15:02.364Z,9.00
2023-04-21T05:17:31.109Z,9.00
2023-04-21T05:19:58.612Z,9.00
2023-04-21T05:22:26.302Z,8.90
2023-04-21T05:24:53.923Z,8.90
2023-04-21T05:27:21.332Z,8.90
2023-04-21T05:29:48.926Z,8.90
2023-04-21T05:32:16.410Z,8.90
2023-04-21T05:34:43.825Z,9.00
2023-04-21T05:37:14.866Z,8.90
2023-04-21T05:39:42.274Z,9.00
2023-04-21T05:42:12.746Z,9.00
2023-04-21T05:44:40.159Z,8.90
2023-04-21T05:47:08.010Z,9.00
2023-04-21T05:49:35.423Z,8.90
2023-04-21T05:52:02.838Z,8.90
2023-04-21T05:54:30.108Z,8.90
2023-04-21T05:56:57.383Z,8.90
2023-04-21T05:59:26.352Z,8.90
2023-04-21T06:01:53.600Z,8.90
2023-04-21T06:04:21.247Z,9.00
2023-04-21T06:06:48.862Z,9.00
2023-04-21T06:09:16.139Z,9.00
2023-04-21T06:11:43.381Z,9.10
2023-04-21T06:14:10.830Z,9.20
2023-04-21T06:16:38.273Z,9.20
2023-04-21T06:19:05.780Z,9.20
2023-04-21T06:21:33.237Z,9.10
2023-04-21T06:24:00.629Z,9.10
2023-04-21T06:26:27.890Z,9.20
2023-04-21T06:28:55.142Z,9.20
2023-04-21T06:31:22.504Z,9.30
2023-04-21T06:33:49.832Z,9.30
2023-04-21T06:36:18.155Z,9.40
2023-04-21T06:38:45.929Z,9.50
2023-04-21T06:41:13.299Z,9.60
2023-04-21T06:43:41.000Z,9.60
2023-04-21T06:46:08.604Z,9.60
2023-04-21T06:48:35.928Z,9.60
2023-04-21T06:51:03.276Z,9.60
2023-04-21T06:53:30.681Z,9.60
2023-04-21T06:55:57.999Z,9.70
2023-04-21T06:58:25.471Z,9.70
2023-04-21T07:00:52.800Z,9.70
2023-04-21T07:03:20.187Z,9.70
2023-04-21T07:05:47.772Z,9.70
2023-04-21T07:08:15.077Z,9.70
2023-04-21T07:10:42.410Z,9.70
2023-04-21T07:13:10.234Z,9.80
2023-04-21T07:15:37.671Z,9.90
2023-04-21T07:18:04.978Z,9.90
2023-04-21T07:20:32.336Z,9.90
2023-04-21T07:22:59.617Z,9.90
2023-04-21T07:25:26.952Z,10.00
2023-04-21T07:27:54.279Z,10.00
2023-04-21T07:30:21.806Z,10.10
2023-04-21T07:32:49.303Z,10.10
2023-04-21T07:35:17.025Z,10.20
2023-04-21T07:37:44.619Z,10.20
2023-04-21T07:40:12.302Z,10.30
2023-04-21T07:42:39.783Z,10.40
2023-04-21T07:45:07.628Z,10.40
2023-04-21T07:47:35.391Z,10.40
2023-04-21T07:50:02.777Z,10.50
2023-04-21T07:52:30.392Z,10.50
2023-04-21T07:54:57.699Z,10.60
2023-04-21T07:57:25.240Z,10.70
2023-04-21T07:59:52.659Z,10.70
2023-04-21T08:02:20.047Z,10.80
2023-04-21T08:04:47.460Z,10.80
2023-04-21T08:07:15.817Z,10.90
2023-04-21T08:09:43.362Z,11.00
2023-04-21T08:12:10.619Z,11.00
2023-04-21T08:14:38.001Z,11.10
2023-04-21T08:17:05.400Z,11.20
2023-04-21T08:19:32.832Z,11.30
2023-04-21T08:22:00.789Z,11.40
2023-04-21T08:24:28.293Z,11.40
2023-04-21T08:26:55.964Z,11.40
2023-04-21T08:29:23.710Z,11.50
2023-04-21T08:31:51.142Z,11.60
2023-04-21T08:34:21.001Z,11.70
2023-04-21T08:36:49.435Z,11.80
2023-04-21T08:39:17.030Z,11.90
2023-04-21T08:41:44.458Z,12.00
2023-04-21T08:44:11.938Z,12.00
2023-04-21T08:46:40.256Z,12.10
2023-04-21T08:49:10.001Z,12.10
2023-04-21T08:51:37.481Z,12.20
2023-04-21T08:54:05.422Z,12.20
2023-04-21T08:56:32.702Z,12.20
2023-04-21T08:59:00.116Z,12.30
2023-04-21T09:01:27.555Z,12.40
2023-04-21T09:04:14.850Z,12.50
2023-04-21T09:06:46.344Z,12.50
2023-04-21T09:09:13.848Z,12.60
2023-04-21T09:11:41.277Z,12.60
2023-04-21T09:14:09.816Z,12.70
2023-04-21T09:16:37.134Z,12.70
2023-04-21T09:19:15.350Z,12.80
2023-04-21T09:21:44.454Z,12.90
2023-04-21T09:24:13.144Z,13.00
2023-04-21T09:26:42.860Z,13.00
2023-04-21T09:29:10.400Z,13.10
2023-04-21T09:31:38.014Z,13.20
2023-04-21T09:34:26.498Z,13.30
2023-04-21T09:37:01.718Z,13.40
2023-04-21T09:39:43.149Z,13.50
2023-04-21T09:42:18.797Z,13.70
2023-04-21T09:44:52.493Z,13.80
2023-04-21T09:47:30.753Z,14.00
2023-04-21T09:49:59.123Z,14.00
2023-04-21T09:52:30.112Z,14.10
2023-04-21T09:55:04.316Z,14.10
2023-04-21T09:57:32.877Z,14.30
2023-04-21T10:00:12.131Z,14.30
2023-04-21T10:02:49.930Z,14.40
2023-04-21T10:05:17.822Z,14.50
2023-04-21T10:07:46.368Z,14.60
2023-04-21T10:10:21.306Z,14.60
2023-04-21T10:12:49.220Z,14.80
2023-04-21T10:15:30.754Z,14.80
2023-04-21T10:18:25.413Z,14.80
2023-04-21T10:21:02.107Z,14.90
2023-04-21T10:23:30.970Z,14.90
2023-04-21T10:26:07.088Z,15.00
2023-04-21T10:28:44.963Z,15.00
2023-04-21T10:31:29.894Z,15.10
2023-04-21T10:34:17.309Z,15.10
2023-04-21T10:36:56.602Z,15.00
2023-04-21T10:39:27.069Z,15.00
2023-04-21T10:42:12.959Z,15.00
2023-04-21T10:44:44.307Z,15.10
2023-04-21T10:47:11.864Z,15.10
2023-04-21T10:49:40.887Z,15.10
2023-04-21T10:52:09.912Z,15.20
2023-04-21T10:55:00.450Z,15.30
2023-04-21T10:57:32.700Z,15.30
2023-04-21T11:00:00.793Z,15.40
2023-04-21T11:02:28.308Z,15.50
2023-04-21T11:04:56.299Z,15.50
2023-04-21T11:07:24.407Z,15.50
2023-04-21T11:10:06.625Z,15.50
2023-04-21T11:12:39.552Z,15.50
2023-04-21T11:15:09.688Z,15.60
2023-04-21T11:17:43.220Z,15.60
2023-04-21T11:20:10.857Z,15.60
2023-04-21T11:22:38.776Z,15.70
2023-04-21T11:25:16.404Z,15.70
2023-04-21T11:27:56.839Z,15.80
2023-04-21T11:30:34.859Z,15.80
2023-04-21T11:33:02.728Z,16.00
2023-04-21T11:35:31.776Z,16.00
2023-04-21T11:38:04.181Z,16.10
2023-04-21T11:40:47.932Z,16.20
2023-04-21T11:43:15.669Z,16.20
2023-04-21T11:45:43.104Z,16.30
2023-04-21T11:48:17.505Z,16.30
2023-04-21T11:50:49.619Z,16.40
2023-04-21T11:53:17.285Z,16.50
2023-04-21T11:55:46.598Z,16.50
2023-04-21T11:58:16.464Z,16.50
2023-04-21T12:00:47.275Z,16.50
2023-04-21T12:03:15.069Z,16.60
2023-04-21T12:05:42.834Z,16.70
2023-04-21T12:08:16.722Z,16.90
2023-04-21T12:10:48.636Z,17.00
2023-04-21T12:13:27.399Z,17.20
2023-04-21T12:15:54.920Z,17.20
2023-04-21T12:18:26.976Z,17.30
2023-04-21T12:20:55.426Z,17.30
2023-04-21T12:23:22.845Z,17.30
2023-04-21T12:25:51.297Z,17.40
2023-04-21T12:28:18.720Z,17.40
2023-04-21T12:30:48.440Z,17.50
2023-04-21T12:33:16.002Z,17.60
2023-04-21T12:35:43.486Z,17.60
2023-04-21T12:38:11.094Z,17.60
2023-04-21T12:40:38.610Z,17.60
2023-04-21T12:43:05.858Z,17.60
2023-04-21T12:45:33.217Z,17.70
2023-04-21T12:48:00.939Z,17.70
2023-04-21T12:50:29.629Z,17.80
2023-04-21T12:52:56.952Z,17.90
2023-04-21T12:55:24.343Z,17.90
2023-04-21T12:57:52.763Z,17.90
2023-04-21T13:00:20.575Z,18.00
2023-04-21T13:02:47.931Z,18.00
2023-04-21T13:05:15.285Z,18.10
2023-04-21T13:07:42.669Z,18.30
2023-04-21T13:10:10.386Z,18.70
2023-04-21T13:12:37.996Z,19.10
2023-04-21T13:15:06.031Z,19.40
2023-04-21T13:17:33.392Z,19.60
2023-04-21T13:20:00.787Z,19.70
2023-04-21T13:22:28.241Z,19.70
2023-04-21T13:24:55.536Z,19.70
2023-04-21T13:27:22.805Z,19.90
2023-04-21T13:29:50.464Z,20.00
2023-04-21T13:32:17.935Z,20.10
2023-04-21T13:34:45.252Z,20.30
2023-04-21T13:37:16.100Z,20.70
2023-04-21T13:39:43.643Z,21.10
2023-04-21T13:42:11.347Z,21.50
2023-04-21T13:44:38.640Z,21.70
2023-04-21T13:47:08.758Z,21.80
2023-04-21T13:49:36.616Z,22.10
2023-04-21T13:52:04.285Z,22.20
2023-04-21T13:54:31.829Z,22.10
2023-04-21T13:56:59.340Z,22.00
2023-04-21T13:59:26.788Z,21.80
2023-04-21T14:01:54.046Z,21.60
2023-04-21T14:04:22.130Z,21.40
2023-04-21T14:06:51.153Z,21.20
2023-04-21T14:09:18.896Z,21.20
2023-04-21T14:11:46.352Z,21.70
2023-04-21T14:16:41.403Z,23.10
2023-04-21T14:19:10.225Z,24.00
2023-04-21T14:21:37.728Z,24.80
2023-04-21T14:24:05.166Z,25.60
2023-04-21T14:26:32.850Z,26.30
2023-04-21T14:29:01.452Z,26.90
2023-04-21T14:31:29.264Z,27.30
2023-04-21T14:33:56.663Z,27.80
2023-04-21T14:36:24.029Z,28.10
2023-04-21T14:38:51.295Z,28.70
2023-04-21T14:41:18.782Z,29.10
2023-04-21T14:43:47.714Z,29.40
2023-04-21T14:46:16.920Z,30.30
2023-04-21T14:48:44.694Z,31.10
2023-04-21T14:51:12.018Z,32.00
2023-04-21T14:53:40.620Z,32.70
2023-04-21T14:56:08.176Z,33.50
2023-04-21T14:58:38.057Z,34.10
2023-04-21T15:01:05.568Z,34.60
2023-04-21T15:03:32.943Z,35.30
2023-04-21T15:06:00.383Z,34.90
2023-04-21T15:08:27.732Z,34.80
2023-04-21T15:10:55.041Z,35.00
2023-04-21T15:13:22.807Z,35.40
2023-04-21T15:15:52.162Z,35.80
2023-04-21T15:18:20.925Z,36.30
2023-04-21T15:20:48.615Z,36.20
2023-04-21T15:23:16.163Z,35.00
2023-04-21T15:25:43.495Z,33.60
2023-04-21T15:28:11.181Z,32.30
2023-04-21T15:30:38.518Z,31.20
2023-04-21T15:33:06.013Z,30.20
2023-04-21T15:35:33.444Z,29.50
2023-04-21T15:38:00.806Z,29.50
2023-04-21T15:40:28.212Z,29.70
2023-04-21T15:42:55.525Z,30.10
2023-04-21T15:45:22.990Z,30.10
2023-04-21T15:47:50.306Z,29.90
2023-04-21T15:50:17.894Z,29.90
2023-04-21T15:52:45.297Z,30.40
2023-04-21T15:55:12.781Z,30.50
2023-04-21T15:57:40.089Z,30.00
2023-04-21T16:00:10.142Z,29.30
2023-04-21T16:02:38.093Z,28.60
2023-04-21T16:05:06.219Z,28.00
2023-04-21T16:07:33.670Z,27.40
2023-04-21T16:10:01.054Z,26.90
2023-04-21T16:12:28.542Z,26.40
2023-04-21T16:15:01.687Z,25.80
2023-04-21T16:17:36.794Z,25.40
2023-04-21T16:20:05.593Z,24.80
2023-04-21T16:22:32.994Z,24.40
2023-04-21T16:25:00.936Z,24.00
2023-04-21T16:27:28.313Z,23.70
2023-04-21T16:29:55.905Z,23.40
2023-04-21T16:32:23.236Z,23.20
2023-04-21T16:34:50.667Z,22.90
2023-04-21T16:37:18.051Z,22.70
2023-04-21T16:39:46.101Z,22.40
2023-04-21T16:42:13.428Z,22.20
2023-04-21T16:44:46.093Z,22.00
2023-04-21T16:47:13.598Z,21.90
2023-04-21T16:49:42.316Z,21.80
2023-04-21T16:52:17.360Z,21.60
2023-04-21T16:54:44.917Z,21.50
2023-04-21T16:57:12.646Z,21.40
2023-04-21T16:59:40.690Z,21.30
2023-04-21T17:02:08.074Z,21.20
2023-04-21T17:04:37.671Z,21.20
2023-04-21T17:07:06.271Z,21.10
2023-04-21T17:09:33.698Z,21.00
2023-04-21T17:12:01.240Z,20.80
2023-04-21T17:14:28.898Z,20.80
2023-04-21T17:16:56.446Z,20.70
2023-04-21T17:19:24.370Z,20.60
2023-04-21T17:21:51.601Z,20.50
2023-04-21T17:24:19.068Z,20.40
2023-04-21T17:26:46.740Z,20.30
2023-04-21T17:29:14.228Z,20.20
2023-04-21T17:31:41.517Z,20.10
2023-04-21T17:34:08.851Z,20.10
2023-04-21T17:36:36.297Z,20.00
2023-04-21T17:39:03.591Z,19.90
2023-04-21T17:41:31.046Z,19.90
2023-04-21T17:43:58.712Z,19.80
2023-04-21T17:46:26.381Z,19.80
2023-04-21T17:48:54.053Z,19.70
2023-04-21T17:51:21.393Z,19.70
2023-04-21T17:53:48.665Z,19.60
2023-04-21T17:56:16.081Z,19.50
2023-04-21T17:58:43.418Z,19.50
2023-04-21T18:01:10.912Z,19.40
2023-04-21T18:03:41.317Z,19.40
2023-04-21T18:06:11.243Z,19.40
2023-04-21T18:08:38.627Z,19.30
2023-04-21T18:11:06.266Z,19.30
2023-04-21T18:13:34.033Z,19.20
2023-04-21T18:16:01.772Z,19.10
2023-04-21T18:18:29.177Z,19.10
2023-04-21T18:20:56.461Z,19.00
2023-04-21T18:23:24.026Z,19.00
2023-04-21T18:25:51.568Z,18.90
2023-04-21T18:28:18.874Z,18.90
2023-04-21T18:30:46.849Z,18.90
2023-04-21T18:33:14.123Z,18.80
2023-04-21T18:35:42.197Z,18.70
2023-04-21T18:38:11.497Z,18.70
2023-04-21T18:40:40.401Z,18.70
2023-04-21T18:43:09.662Z,18.60
2023-04-21T18:45:37.476Z,18.60
2023-04-21T18:48:05.522Z,18.60
2023-04-21T18:50:35.222Z,18.50
2023-04-21T18:53:04.088Z,18.50
2023-04-21T18:55:36.122Z,18.30
2023-04-21T18:58:03.886Z,18.20
2023-04-21T19:00:32.291Z,18.00
2023-04-21T19:03:01.054Z,17.90
2023-04-21T19:05:31.091Z,17.80
2023-04-21T19:07:58.987Z,17.60
2023-04-21T19:10:27.007Z,17.30
2023-04-21T19:12:54.724Z,17.20
2023-04-21T19:15:22.619Z,17.00
2023-04-21T19:17:49.849Z,16.90
2023-04-21T19:20:18.228Z,16.70
2023-04-21T19:22:45.760Z,16.60
2023-04-21T19:25:13.018Z,16.50
2023-04-21T19:27:41.388Z,16.40
2023-04-21T19:30:09.408Z,16.30
2023-04-21T19:32:36.767Z,16.30
2023-04-21T19:35:04.243Z,16.20
2023-04-21T19:37:33.602Z,16.20
2023-04-21T19:40:03.187Z,16.10
2023-04-21T19:42:30.590Z,16.00
2023-04-21T19:44:57.893Z,16.00
2023-04-21T19:47:25.196Z,15.90
2023-04-21T19:49:52.508Z,15.90
2023-04-21T19:52:19.827Z,15.80
2023-04-21T19:54:47.068Z,15.80
2023-04-21T19:57:14.433Z,15.80
2023-04-21T19:59:41.731Z,15.70
2023-04-21T20:02:09.595Z,15.70
2023-04-21T20:04:37.515Z,15.70
2023-04-21T20:07:05.111Z,15.70
2023-04-21T20:09:32.418Z,15.60
2023-04-21T20:11:59.644Z,15.60
2023-04-21T20:14:27.154Z,15.60
2023-04-21T20:16:54.381Z,15.50
2023-04-21T20:19:23.044Z,15.50
2023-04-21T20:21:50.308Z,15.50
2023-04-21T20:24:17.532Z,15.50
2023-04-21T20:26:45.946Z,15.40
2023-04-21T20:29:13.236Z,15.40
2023-04-21T20:31:41.226Z,15.30
2023-04-21T20:34:08.684Z,15.20
2023-04-21T20:36:36.941Z,15.20
2023-04-21T20:39:07.288Z,15.10
2023-04-21T20:41:34.507Z,15.10
2023-04-21T20:44:01.710Z,15.10
2023-04-21T20:46:29.915Z,15.10
2023-04-21T20:48:57.157Z,15.10
2023-04-21T20:51:24.651Z,15.00
2023-04-21T20:53:51.876Z,15.00
2023-04-21T20:56:19.346Z,15.00
2023-04-21T20:58:47.836Z,14.90
2023-04-21T21:01:15.073Z,14.90
2023-04-21T21:03:42.420Z,14.90
2023-04-21T21:06:10.529Z,14.90
2023-04-21T21:08:37.820Z,14.90
2023-04-21T21:11:06.313Z,14.80
2023-04-21T21:13:33.617Z,14.80
2023-04-21T21:16:00.796Z,14.80
2023-04-21T21:18:28.528Z,14.70
2023-04-21T21:20:55.919Z,14.70
2023-04-21T21:23:23.175Z,14.70
2023-04-21T21:25:50.837Z,14.60
2023-04-21T21:28:18.981Z,14.60
2023-04-21T21:30:46.273Z,14.60
2023-04-21T21:33:13.690Z,14.60
2023-04-21T21:35:41.841Z,14.50
2023-04-21T21:38:09.320Z,14.50
2023-04-21T21:40:36.699Z,14.50
2023-04-21T21:43:04.006Z,14.50
2023-04-21T21:45:31.478Z,14.40
2023-04-21T21:47:58.781Z,14.40
2023-04-21T21:50:26.696Z,14.40
2023-04-21T21:52:53.991Z,14.30
2023-04-21T21:55:21.320Z,14.30
2023-04-21T21:57:48.567Z,14.30
2023-04-21T22:00:16.108Z,14.30
2023-04-21T22:02:43.595Z,14.20
2023-04-21T22:05:11.639Z,14.20
2023-04-21T22:07:43.042Z,14.20
2023-04-21T22:10:11.387Z,14.10
2023-04-21T22:12:38.981Z,14.10
2023-04-21T22:15:06.875Z,14.10
2023-04-21T22:17:37.937Z,14.10
2023-04-21T22:20:08.230Z,14.10
2023-04-21T22:22:35.903Z,14.00
2023-04-21T22:25:03.417Z,14.00
2023-04-21T22:27:33.193Z,14.00
2023-04-21T22:30:03.547Z,13.90
2023-04-21T22:32:32.200Z,13.80
2023-04-21T22:35:00.017Z,13.80
2023-04-21T22:37:27.922Z,13.80
2023-04-21T22:39:57.499Z,13.70
2023-04-21T22:42:24.973Z,13.70
2023-04-21T22:44:52.421Z,13.60
2023-04-21T22:47:20.481Z,13.70
2023-04-21T22:49:47.784Z,13.70
2023-04-21T22:52:15.057Z,13.60
2023-04-21T22:54:42.409Z,13.60
2023-04-21T22:57:09.718Z,13.60
2023-04-21T22:59:37.143Z,13.50
2023-04-21T23:02:05.685Z,13.50
2023-04-21T23:04:33.102Z,13.50
2023-04-21T23:07:00.396Z,13.50
2023-04-21T23:09:27.653Z,13.40
2023-04-21T23:11:54.955Z,13.40
2023-04-21T23:14:22.216Z,13.30
2023-04-21T23:16:49.487Z,13.30
2023-04-21T23:19:16.919Z,13.30
2023-04-21T23:21:44.423Z,13.30
2023-04-21T23:24:11.679Z,13.30
2023-04-21T23:26:38.991Z,13.30
2023-04-21T23:29:06.295Z,13.20
2023-04-21T23:31:33.569Z,13.30
2023-04-21T23:34:01.000Z,13.30
2023-04-21T23:36:28.257Z,13.20
2023-04-21T23:38:55.999Z,13.20
2023-04-21T23:41:23.428Z,13.20
2023-04-21T23:43:50.627Z,13.20
2023-04-21T23:46:17.898Z,13.20
2023-04-21T23:48:45.321Z,13.20
2023-04-21T23:51:12.809Z,13.10
2023-04-21T23:53:40.337Z,13.10
2023-04-21T23:56:07.664Z,13.20
2023-04-21T23:58:34.870Z,13.10
